Time;durP1;ratioP1;P1;durP2;ratioP2;P2;SDS_P1;SDS_P2;PMS_P1;PMS_P2;Temp;Humidity;BMP_temperature;BMP_pressure;BME280_temperature;BME280_humidity;BME280_pressure;Samples;Min_cycle;Max_cycle;Signal;HPM_P1;HPM_P2
2023/06/14 00:00:34;;;;;;;8.77;2.83;;;;;;;;;;5059216;28;25061;-73
2023/06/14 00:03:00;;;;;;;7.65;3.15;;;;;;;;;;5069464;28;24996;-71
2023/06/14 00:05:29;;;;;;;4.72;3.00;;;;;;;;;;5026433;28;25133;-71
2023/06/14 00:07:55;;;;;;;4.78;3.08;;;;;;;;;;5059806;28;25104;-71
2023/06/14 00:10:21;;;;;;;7.07;3.20;;;;;;;;;;5055457;28;25055;-71
2023/06/14 00:12:47;;;;;;;5.70;2.67;;;;;;;;;;5061928;28;25069;-70
2023/06/14 00:15:13;;;;;;;6.82;3.00;;;;;;;;;;5054436;28;25107;-72
2023/06/14 00:17:39;;;;;;;6.13;3.08;;;;;;;;;;5062689;28;25076;-71
2023/06/14 00:20:06;;;;;;;7.72;3.25;;;;;;;;;;5060586;28;25145;-73
2023/06/14 00:22:32;;;;;;;4.13;2.88;;;;;;;;;;5068177;28;25088;-73
2023/06/14 00:24:58;;;;;;;6.30;2.88;;;;;;;;;;5062448;28;25072;-71
2023/06/14 00:27:24;;;;;;;4.07;2.95;;;;;;;;;;5062926;28;25176;-70
2023/06/14 00:29:51;;;;;;;4.35;3.10;;;;;;;;;;5063275;28;25058;-71
2023/06/14 00:32:18;;;;;;;7.57;3.03;;;;;;;;;;5060931;28;25100;-73
2023/06/14 00:34:44;;;;;;;8.15;2.78;;;;;;;;;;5067500;28;25108;-72
2023/06/14 00:37:10;;;;;;;3.53;2.67;;;;;;;;;;5062967;28;25164;-71
2023/06/14 00:39:36;;;;;;;3.40;2.67;;;;;;;;;;5069795;28;25163;-71
2023/06/14 00:42:02;;;;;;;7.35;2.53;;;;;;;;;;5068533;28;25139;-71
2023/06/14 00:44:28;;;;;;;6.20;3.13;;;;;;;;;;5068830;28;25071;-71
2023/06/14 00:46:54;;;;;;;5.38;3.00;;;;;;;;;;5074245;28;25068;-70
2023/06/14 00:49:20;;;;;;;6.75;3.53;;;;;;;;;;5070106;28;25125;-71
2023/06/14 00:51:46;;;;;;;7.82;3.20;;;;;;;;;;5065961;28;25049;-70
2023/06/14 00:54:13;;;;;;;8.23;3.42;;;;;;;;;;5066086;28;25068;-72
2023/06/14 00:56:40;;;;;;;5.38;2.92;;;;;;;;;;5069642;28;25052;-70
2023/06/14 00:59:06;;;;;;;4.88;3.00;;;;;;;;;;5046029;28;25061;-70
2023/06/14 01:01:35;;;;;;;6.60;2.85;;;;;;;;;;5059421;28;25048;-71
2023/06/14 01:04:01;;;;;;;7.00;2.92;;;;;;;;;;5072169;28;25067;-71
2023/06/14 01:06:47;;;;;;;9.75;3.45;;;;;;;;;;5067763;28;25064;-72
2023/06/14 01:09:24;;;;;;;9.70;3.22;;;;;;;;;;5062863;28;25065;-72
2023/06/14 01:11:56;;;;;;;8.18;3.28;;;;;;;;;;5068977;28;25135;-71
2023/06/14 01:14:23;;;;;;;11.00;3.10;;;;;;;;;;5062857;28;25061;-70
2023/06/14 01:16:52;;;;;;;4.70;3.38;;;;;;;;;;5062768;28;25048;-71
2023/06/14 01:19:19;;;;;;;4.90;2.80;;;;;;;;;;5065475;28;25055;-70
2023/06/14 01:21:45;;;;;;;6.55;3.58;;;;;;;;;;5059473;28;25059;-71
2023/06/14 01:24:11;;;;;;;4.75;2.80;;;;;;;;;;5066571;28;24924;-71
2023/06/14 01:26:37;;;;;;;6.05;3.58;;;;;;;;;;5057912;28;25075;-70
2023/06/14 01:29:04;;;;;;;3.83;2.92;;;;;;;;;;5076714;28;25073;-72
2023/06/14 01:31:40;;;;;;;5.05;2.92;;;;;;;;;;5067063;28;25098;-70
2023/06/14 01:34:08;;;;;;;6.55;3.50;;;;;;;;;;5047742;28;25067;-71
2023/06/14 01:36:36;;;;;;;5.55;3.10;;;;;;;;;;5067280;28;25046;-71
2023/06/14 01:39:03;;;;;;;4.68;2.83;;;;;;;;;;5069983;28;25148;-70
2023/06/14 01:41:30;;;;;;;5.45;3.17;;;;;;;;;;5065718;28;25088;-71
2023/06/14 01:43:57;;;;;;;7.72;3.33;;;;;;;;;;5063673;28;25059;-72
2023/06/14 01:46:23;;;;;;;6.50;3.25;;;;;;;;;;5059469;28;25160;-72
2023/06/14 01:48:50;;;;;;;5.20;2.80;;;;;;;;;;5067375;28;25152;-71
2023/06/14 01:51:16;;;;;;;7.78;3.33;;;;;;;;;;5064150;28;25076;-72
2023/06/14 01:53:42;;;;;;;9.77;3.33;;;;;;;;;;5069458;28;25075;-71
2023/06/14 01:56:08;;;;;;;6.40;2.97;;;;;;;;;;5057140;28;25077;-72
2023/06/14 01:58:35;;;;;;;4.30;2.95;;;;;;;;;;5062003;28;25044;-71
2023/06/14 02:01:02;;;;;;;5.78;3.00;;;;;;;;;;5049757;28;25079;-71
2023/06/14 02:03:27;;;;;;;5.90;3.72;;;;;;;;;;5068920;28;25086;-69
2023/06/14 02:05:55;;;;;;;8.60;3.30;;;;;;;;;;5062242;28;25105;-71
2023/06/14 02:08:21;;;;;;;10.15;3.30;;;;;;;;;;5072100;28;25125;-70
2023/06/14 02:10:47;;;;;;;4.47;3.20;;;;;;;;;;5072873;28;25058;-70
2023/06/14 02:13:13;;;;;;;6.78;3.30;;;;;;;;;;5055702;28;25074;-70
2023/06/14 02:15:40;;;;;;;16.33;3.90;;;;;;;;;;5064207;28;25066;-72
2023/06/14 02:18:06;;;;;;;3.55;2.90;;;;;;;;;;5058507;28;25166;-70
2023/06/14 02:20:32;;;;;;;6.47;3.33;;;;;;;;;;5064046;28;25081;-71
2023/06/14 02:22:57;;;;;;;6.22;3.15;;;;;;;;;;5060026;28;25077;-70
2023/06/14 02:25:23;;;;;;;8.07;3.67;;;;;;;;;;5063140;28;25054;-70
2023/06/14 02:27:49;;;;;;;5.00;2.88;;;;;;;;;;5050058;28;25082;-69
2023/06/14 02:30:15;;;;;;;7.93;3.15;;;;;;;;;;5075457;28;25057;-70
2023/06/14 02:32:42;;;;;;;7.25;3.55;;;;;;;;;;5070834;28;25074;-71
2023/06/14 02:35:09;;;;;;;7.25;3.45;;;;;;;;;;5074656;28;25071;-69
2023/06/14 02:37:35;;;;;;;4.35;3.15;;;;;;;;;;5085175;28;25062;-70
2023/06/14 02:40:01;;;;;;;7.35;3.47;;;;;;;;;;5087638;28;25056;-71
2023/06/14 02:42:27;;;;;;;6.25;3.28;;;;;;;;;;5087852;28;25127;-70
2023/06/14 02:44:53;;;;;;;4.05;2.83;;;;;;;;;;5085179;28;25106;-70
2023/06/14 02:47:19;;;;;;;4.13;3.17;;;;;;;;;;5082805;28;25046;-71
2023/06/14 02:49:46;;;;;;;9.35;3.00;;;;;;;;;;5068055;28;25050;-71
2023/06/14 02:52:12;;;;;;;5.72;3.45;;;;;;;;;;5063039;28;25058;-71
2023/06/14 02:54:38;;;;;;;5.68;3.00;;;;;;;;;;5067913;28;25092;-71
2023/06/14 02:57:06;;;;;;;6.22;2.65;;;;;;;;;;5066107;28;25099;-69
2023/06/14 02:59:32;;;;;;;8.02;4.60;;;;;;;;;;5068898;28;25062;-71
2023/06/14 03:01:58;;;;;;;8.63;3.58;;;;;;;;;;5062911;28;25074;-71
2023/06/14 03:04:25;;;;;;;9.80;3.60;;;;;;;;;;5067764;28;25062;-71
2023/06/14 03:06:51;;;;;;;8.32;3.53;;;;;;;;;;5071343;28;25076;-71
2023/06/14 03:09:18;;;;;;;7.78;3.78;;;;;;;;;;5045417;28;25087;-70
2023/06/14 03:11:45;;;;;;;11.73;3.30;;;;;;;;;;5069049;28;25066;-71
2023/06/14 03:14:11;;;;;;;7.10;3.20;;;;;;;;;;5065437;28;25073;-71
2023/06/14 03:16:37;;;;;;;8.50;3.58;;;;;;;;;;5060848;28;25144;-71
2023/06/14 03:19:03;;;;;;;7.60;3.25;;;;;;;;;;5049347;28;25152;-72
2023/06/14 03:21:29;;;;;;;6.95;3.70;;;;;;;;;;5069043;28;25184;-71
2023/06/14 03:23:55;;;;;;;8.55;3.80;;;;;;;;;;5065734;28;25140;-72
2023/06/14 03:26:22;;;;;;;11.27;3.88;;;;;;;;;;5068074;28;25048;-72
2023/06/14 03:28:49;;;;;;;7.90;3.72;;;;;;;;;;5060601;28;25057;-71
2023/06/14 03:31:16;;;;;;;6.35;3.33;;;;;;;;;;5073041;28;25104;-70
2023/06/14 03:33:42;;;;;;;10.88;3.35;;;;;;;;;;5065139;28;25061;-72
2023/06/14 03:36:08;;;;;;;6.05;3.80;;;;;;;;;;5061855;28;25059;-71
2023/06/14 03:38:34;;;;;;;9.23;3.47;;;;;;;;;;5072527;28;25075;-71
2023/06/14 03:41:00;;;;;;;6.18;3.60;;;;;;;;;;5068356;28;25123;-69
2023/06/14 03:43:26;;;;;;;8.38;3.90;;;;;;;;;;5066683;28;25065;-71
2023/06/14 03:45:52;;;;;;;4.88;3.70;;;;;;;;;;5074195;28;25161;-71
2023/06/14 03:48:18;;;;;;;7.53;4.18;;;;;;;;;;5052432;28;25128;-72
2023/06/14 03:50:44;;;;;;;7.95;4.07;;;;;;;;;;5065135;28;25555;-70
2023/06/14 03:53:10;;;;;;;11.50;4.10;;;;;;;;;;5049703;28;25067;-71
2023/06/14 03:55:37;;;;;;;10.50;3.75;;;;;;;;;;5058217;28;25081;-71
2023/06/14 03:58:03;;;;;;;5.10;3.35;;;;;;;;;;5064582;28;25082;-71
2023/06/14 04:00:29;;;;;;;7.65;3.55;;;;;;;;;;5070563;28;25112;-71
2023/06/14 04:02:56;;;;;;;7.53;3.90;;;;;;;;;;5064393;28;25098;-72
2023/06/14 04:05:26;;;;;;;9.75;3.95;;;;;;;;;;5068645;28;25076;-72
2023/06/14 04:07:55;;;;;;;8.25;3.90;;;;;;;;;;5043291;28;25071;-74
2023/06/14 04:10:22;;;;;;;6.25;3.42;;;;;;;;;;5051163;28;25105;-73
2023/06/14 04:12:49;;;;;;;7.22;3.85;;;;;;;;;;5062616;28;25063;-72
2023/06/14 04:15:15;;;;;;;8.82;3.92;;;;;;;;;;5066437;28;25164;-73
2023/06/14 04:17:41;;;;;;;9.43;3.67;;;;;;;;;;5062763;28;25110;-72
2023/06/14 04:20:09;;;;;;;9.32;3.67;;;;;;;;;;5064132;28;25133;-72
2023/06/14 04:22:36;;;;;;;7.93;4.13;;;;;;;;;;5058642;28;25047;-74
2023/06/14 04:25:03;;;;;;;9.75;3.67;;;;;;;;;;5064225;28;25065;-73
2023/06/14 04:27:31;;;;;;;8.35;3.13;;;;;;;;;;5037651;28;25156;-72
2023/06/14 04:29:57;;;;;;;5.28;3.50;;;;;;;;;;5065419;28;25083;-73
2023/06/14 04:32:27;;;;;;;9.55;3.53;;;;;;;;;;5060022;28;25147;-71
2023/06/14 04:34:54;;;;;;;8.80;3.83;;;;;;;;;;5061857;28;25091;-72
2023/06/14 04:37:21;;;;;;;8.93;3.75;;;;;;;;;;5067046;28;25065;-72
2023/06/14 04:39:47;;;;;;;12.25;3.83;;;;;;;;;;5069844;28;25075;-71
2023/06/14 04:42:14;;;;;;;7.40;3.88;;;;;;;;;;5053494;28;25046;-72
2023/06/14 04:44:40;;;;;;;10.13;3.42;;;;;;;;;;5061630;28;25078;-72
2023/06/14 04:47:06;;;;;;;8.52;3.63;;;;;;;;;;5060282;28;25057;-72
2023/06/14 04:49:33;;;;;;;4.93;2.97;;;;;;;;;;5063848;28;25063;-71
2023/06/14 04:52:01;;;;;;;7.80;3.58;;;;;;;;;;5073504;28;25068;-70
2023/06/14 04:54:27;;;;;;;6.65;3.25;;;;;;;;;;5077582;28;25172;-70
2023/06/14 04:56:55;;;;;;;9.48;4.20;;;;;;;;;;5060014;28;25133;-70
2023/06/14 04:59:22;;;;;;;10.55;3.63;;;;;;;;;;5059484;28;25064;-73
2023/06/14 05:01:49;;;;;;;8.07;3.00;;;;;;;;;;5062216;28;25101;-73
2023/06/14 05:04:16;;;;;;;10.07;3.88;;;;;;;;;;5056618;28;25041;-73
2023/06/14 05:06:45;;;;;;;10.88;3.60;;;;;;;;;;5070280;28;25056;-72
2023/06/14 05:09:12;;;;;;;12.23;3.28;;;;;;;;;;5066141;28;25089;-71
2023/06/14 05:11:38;;;;;;;7.55;3.33;;;;;;;;;;5062615;28;25064;-72
2023/06/14 05:14:04;;;;;;;5.95;3.30;;;;;;;;;;5038437;28;25161;-72
2023/06/14 05:16:30;;;;;;;11.77;3.70;;;;;;;;;;5063399;28;25078;-70
2023/06/14 05:18:56;;;;;;;9.85;3.50;;;;;;;;;;5061880;28;26196;-72
2023/06/14 05:21:22;;;;;;;7.25;3.08;;;;;;;;;;5055845;28;25072;-71
2023/06/14 05:23:48;;;;;;;4.20;2.70;;;;;;;;;;5059777;28;25053;-69
2023/06/14 05:26:14;;;;;;;12.07;3.85;;;;;;;;;;5055339;28;25107;-69
2023/06/14 05:28:40;;;;;;;7.63;3.42;;;;;;;;;;5066472;28;25094;-71
2023/06/14 05:31:06;;;;;;;5.32;3.20;;;;;;;;;;5063632;28;25152;-70
2023/06/14 05:33:32;;;;;;;11.93;3.40;;;;;;;;;;5063124;28;25061;-73
2023/06/14 05:35:58;;;;;;;10.13;3.30;;;;;;;;;;5062891;28;25098;-72
2023/06/14 05:38:25;;;;;;;4.53;2.78;;;;;;;;;;5060381;28;25088;-71
2023/06/14 05:40:51;;;;;;;9.10;3.30;;;;;;;;;;5041542;28;25153;-72
2023/06/14 05:43:17;;;;;;;8.82;4.95;;;;;;;;;;5066440;28;25134;-71
2023/06/14 05:45:43;;;;;;;8.23;3.15;;;;;;;;;;5065531;28;25129;-72
2023/06/14 05:48:09;;;;;;;7.25;4.45;;;;;;;;;;5058870;28;25072;-71
2023/06/14 05:50:35;;;;;;;7.40;3.33;;;;;;;;;;5063846;28;25017;-74
2023/06/14 05:53:01;;;;;;;7.30;3.20;;;;;;;;;;5062923;28;25063;-72
2023/06/14 05:55:27;;;;;;;10.40;3.67;;;;;;;;;;5061872;28;25105;-72
2023/06/14 05:57:53;;;;;;;9.00;3.40;;;;;;;;;;5067051;28;25092;-72
2023/06/14 06:00:19;;;;;;;6.88;3.22;;;;;;;;;;5076353;28;25095;-71
2023/06/14 06:02:47;;;;;;;6.90;2.90;;;;;;;;;;5081438;28;25084;-72
2023/06/14 06:05:15;;;;;;;5.72;2.88;;;;;;;;;;5078578;28;25079;-72
2023/06/14 06:07:41;;;;;;;7.25;3.35;;;;;;;;;;5070075;28;25110;-70
2023/06/14 06:10:07;;;;;;;8.20;2.67;;;;;;;;;;5043051;28;25059;-72
2023/06/14 06:12:33;;;;;;;15.75;3.50;;;;;;;;;;5073995;28;25079;-71
2023/06/14 06:15:00;;;;;;;8.85;3.30;;;;;;;;;;5063543;28;25075;-71
2023/06/14 06:17:26;;;;;;;6.45;3.15;;;;;;;;;;5064281;28;25054;-71
2023/06/14 06:19:52;;;;;;;7.88;3.10;;;;;;;;;;5059318;28;25165;-72
2023/06/14 06:22:18;;;;;;;9.57;3.60;;;;;;;;;;5051727;28;25066;-71
2023/06/14 06:24:44;;;;;;;10.38;3.50;;;;;;;;;;5065237;28;25127;-72
2023/06/14 06:27:10;;;;;;;4.47;2.90;;;;;;;;;;5063055;28;25059;-73
2023/06/14 06:29:36;;;;;;;7.70;3.67;;;;;;;;;;5061330;28;25068;-71
2023/06/14 06:32:02;;;;;;;7.28;3.70;;;;;;;;;;5062440;28;25089;-71
2023/06/14 06:34:28;;;;;;;5.97;3.15;;;;;;;;;;5062108;28;25069;-71
2023/06/14 06:36:55;;;;;;;7.65;2.97;;;;;;;;;;5055628;28;25066;-72
2023/06/14 06:39:21;;;;;;;7.47;3.85;;;;;;;;;;5060096;28;25055;-73
2023/06/14 06:41:46;;;;;;;12.10;3.13;;;;;;;;;;5058874;28;25065;-71
2023/06/14 06:44:12;;;;;;;5.13;3.20;;;;;;;;;;5062590;28;25052;-73
2023/06/14 06:46:42;;;;;;;12.38;3.33;;;;;;;;;;5062378;28;25071;-72
2023/06/14 06:49:09;;;;;;;4.57;3.08;;;;;;;;;;5058471;28;25058;-73
2023/06/14 06:51:39;;;;;;;9.50;3.22;;;;;;;;;;5071926;28;25056;-73
2023/06/14 06:54:05;;;;;;;12.13;3.47;;;;;;;;;;5062368;28;25084;-72
2023/06/14 06:56:31;;;;;;;6.32;2.97;;;;;;;;;;5061487;28;25051;-73
2023/06/14 06:58:57;;;;;;;6.75;3.25;;;;;;;;;;5059300;28;25128;-71
2023/06/14 07:01:24;;;;;;;9.18;3.28;;;;;;;;;;5071748;28;25075;-74
2023/06/14 07:03:50;;;;;;;5.32;2.83;;;;;;;;;;5052859;28;25067;-72
2023/06/14 07:06:18;;;;;;;4.60;3.00;;;;;;;;;;5064356;28;25095;-72
2023/06/14 07:08:44;;;;;;;6.80;2.80;;;;;;;;;;5068144;28;25107;-72
2023/06/14 07:11:10;;;;;;;6.65;2.95;;;;;;;;;;5069451;28;25063;-73
2023/06/14 07:13:36;;;;;;;6.60;3.35;;;;;;;;;;5060427;28;25070;-72
2023/06/14 07:16:02;;;;;;;7.75;3.33;;;;;;;;;;5050444;28;25051;-72
2023/06/14 07:18:28;;;;;;;7.53;2.90;;;;;;;;;;5067362;28;25054;-72
2023/06/14 07:20:55;;;;;;;9.23;3.13;;;;;;;;;;5070185;28;25086;-72
2023/06/14 07:23:21;;;;;;;5.68;3.28;;;;;;;;;;5061579;28;25079;-72
2023/06/14 07:25:47;;;;;;;6.85;3.22;;;;;;;;;;5051218;28;25110;-72
2023/06/14 07:28:13;;;;;;;5.72;3.42;;;;;;;;;;5061837;28;25054;-73
2023/06/14 07:30:39;;;;;;;8.27;3.03;;;;;;;;;;5043602;28;25069;-73
2023/06/14 07:33:05;;;;;;;5.78;3.20;;;;;;;;;;5049567;28;25057;-71
2023/06/14 07:35:31;;;;;;;10.82;2.90;;;;;;;;;;5060236;28;25053;-72
2023/06/14 07:37:57;;;;;;;5.63;2.80;;;;;;;;;;5060424;28;25092;-72
2023/06/14 07:40:23;;;;;;;4.10;3.15;;;;;;;;;;5055407;28;25080;-71
2023/06/14 07:42:50;;;;;;;4.15;2.97;;;;;;;;;;5043088;28;25149;-72
2023/06/14 07:45:16;;;;;;;6.30;2.70;;;;;;;;;;5069792;28;25059;-73
2023/06/14 07:47:42;;;;;;;11.48;3.60;;;;;;;;;;5041723;28;25103;-75
2023/06/14 07:50:08;;;;;;;13.82;3.28;;;;;;;;;;5061171;28;25102;-72
2023/06/14 07:52:34;;;;;;;4.47;3.30;;;;;;;;;;5061202;28;25066;-74
2023/06/14 07:55:00;;;;;;;7.85;3.08;;;;;;;;;;5057761;28;25147;-72
2023/06/14 07:57:26;;;;;;;5.80;3.00;;;;;;;;;;5059296;28;25131;-72
2023/06/14 07:59:53;;;;;;;4.85;2.90;;;;;;;;;;5058826;28;25080;-74
2023/06/14 08:02:19;;;;;;;6.32;2.88;;;;;;;;;;5058854;28;25065;-72
2023/06/14 08:04:46;;;;;;;6.07;2.83;;;;;;;;;;5061311;28;25072;-73
2023/06/14 08:07:12;;;;;;;7.75;2.90;;;;;;;;;;5060939;28;25058;-73
2023/06/14 08:09:38;;;;;;;6.55;2.92;;;;;;;;;;5057078;28;25168;-71
2023/06/14 08:12:07;;;;;;;10.88;2.58;;;;;;;;;;5060598;28;25133;-73
2023/06/14 08:14:33;;;;;;;7.93;2.90;;;;;;;;;;5053694;28;25197;-72
2023/06/14 08:16:59;;;;;;;3.80;3.05;;;;;;;;;;5071251;28;25064;-73
2023/06/14 08:19:25;;;;;;;11.43;2.75;;;;;;;;;;5069059;28;25077;-73
2023/06/14 08:21:54;;;;;;;7.50;3.08;;;;;;;;;;5070319;28;25076;-72
2023/06/14 08:24:24;;;;;;;9.20;3.20;;;;;;;;;;5058590;28;25120;-73
2023/06/14 08:26:50;;;;;;;3.85;2.40;;;;;;;;;;5052370;28;25072;-73
2023/06/14 08:29:16;;;;;;;9.27;2.92;;;;;;;;;;5033043;28;25053;-72
2023/06/14 08:31:42;;;;;;;5.68;3.08;;;;;;;;;;5043372;28;25186;-72
2023/06/14 08:34:08;;;;;;;9.95;3.08;;;;;;;;;;5042684;28;25058;-72
2023/06/14 08:36:35;;;;;;;6.32;2.97;;;;;;;;;;5035696;28;25074;-73
2023/06/14 08:39:01;;;;;;;5.45;2.80;;;;;;;;;;5042645;28;25058;-70
2023/06/14 08:41:29;;;;;;;4.63;2.75;;;;;;;;;;5041352;28;25087;-72
2023/06/14 08:43:55;;;;;;;7.78;3.30;;;;;;;;;;5025775;28;25050;-71
2023/06/14 08:46:22;;;;;;;7.28;2.92;;;;;;;;;;5040870;28;25089;-73
2023/06/14 08:48:52;;;;;;;3.35;2.15;;;;;;;;;;5042136;28;25101;-73
2023/06/14 08:51:23;;;;;;;9.73;3.20;;;;;;;;;;5046050;28;25060;-72
2023/06/14 08:53:53;;;;;;;3.65;2.45;;;;;;;;;;5033531;28;25118;-72
2023/06/14 08:56:20;;;;;;;10.02;3.15;;;;;;;;;;5037515;28;25134;-72
2023/06/14 08:58:48;;;;;;;7.80;3.00;;;;;;;;;;5041646;28;25150;-73
2023/06/14 09:01:16;;;;;;;6.88;3.17;;;;;;;;;;5039604;28;25143;-72
2023/06/14 09:03:42;;;;;;;5.68;2.65;;;;;;;;;;5040330;28;25090;-73
2023/06/14 09:06:13;;;;;;;11.82;2.63;;;;;;;;;;5036063;28;25114;-72
2023/06/14 09:08:40;;;;;;;6.43;3.30;;;;;;;;;;5043239;28;25068;-73
2023/06/14 09:11:06;;;;;;;7.95;3.25;;;;;;;;;;5059519;28;25084;-71
2023/06/14 09:13:32;;;;;;;5.30;3.13;;;;;;;;;;5062043;28;25100;-72
2023/06/14 09:15:58;;;;;;;5.93;2.63;;;;;;;;;;5048264;28;25080;-74
2023/06/14 09:18:33;;;;;;;7.53;2.72;;;;;;;;;;5065566;28;25158;-71
2023/06/14 09:21:00;;;;;;;5.43;2.40;;;;;;;;;;5067482;28;25246;-72
2023/06/14 09:23:25;;;;;;;8.90;2.70;;;;;;;;;;5057799;28;25126;-72
2023/06/14 09:25:51;;;;;;;4.38;2.35;;;;;;;;;;5060626;28;25080;-73
2023/06/14 09:28:18;;;;;;;4.85;2.45;;;;;;;;;;5067022;28;25089;-74
2023/06/14 09:30:43;;;;;;;7.10;2.33;;;;;;;;;;5079531;28;25072;-71
2023/06/14 09:33:10;;;;;;;8.82;2.28;;;;;;;;;;5067469;28;25062;-73
2023/06/14 09:35:36;;;;;;;5.68;2.45;;;;;;;;;;5065601;28;25142;-72
2023/06/14 09:38:02;;;;;;;4.45;2.58;;;;;;;;;;5048795;28;25077;-71
2023/06/14 09:40:28;;;;;;;8.68;2.13;;;;;;;;;;5063958;28;25057;-73
2023/06/14 09:42:57;;;;;;;3.25;2.35;;;;;;;;;;5052144;28;25054;-75
2023/06/14 09:45:23;;;;;;;3.90;2.30;;;;;;;;;;5048368;28;25066;-72
2023/06/14 09:47:50;;;;;;;5.00;2.42;;;;;;;;;;5044632;28;25063;-73
2023/06/14 09:50:16;;;;;;;4.30;2.40;;;;;;;;;;5032513;28;25106;-72
2023/06/14 09:52:44;;;;;;;2.97;2.25;;;;;;;;;;5037735;28;25091;-72
2023/06/14 09:55:13;;;;;;;3.22;1.88;;;;;;;;;;5042897;28;25132;-72
2023/06/14 09:57:41;;;;;;;1.83;1.70;;;;;;;;;;5047603;28;25071;-74
2023/06/14 10:00:11;;;;;;;4.38;2.58;;;;;;;;;;5040577;28;25073;-71
2023/06/14 10:02:38;;;;;;;3.83;2.25;;;;;;;;;;5034478;28;25077;-73
2023/06/14 10:05:11;;;;;;;4.72;2.10;;;;;;;;;;5037690;28;25091;-72
2023/06/14 10:07:48;;;;;;;3.55;2.42;;;;;;;;;;5031457;28;25067;-72
2023/06/14 10:10:15;;;;;;;4.13;1.65;;;;;;;;;;5037776;28;25052;-71
2023/06/14 10:12:41;;;;;;;3.75;2.28;;;;;;;;;;5037896;28;25132;-71
2023/06/14 10:15:09;;;;;;;2.45;1.70;;;;;;;;;;5041879;28;25125;-72
2023/06/14 10:17:36;;;;;;;3.28;2.35;;;;;;;;;;5037748;28;25062;-71
2023/06/14 10:20:16;;;;;;;5.72;1.80;;;;;;;;;;5035568;28;25071;-70
2023/06/14 10:22:45;;;;;;;2.80;2.08;;;;;;;;;;5046550;28;25057;-73
2023/06/14 10:25:14;;;;;;;4.15;2.22;;;;;;;;;;5033712;28;25075;-72
2023/06/14 10:27:46;;;;;;;6.40;1.80;;;;;;;;;;5041637;28;25070;-71
2023/06/14 10:30:15;;;;;;;3.70;1.88;;;;;;;;;;5046574;28;25065;-72
2023/06/14 10:33:00;;;;;;;3.97;1.98;;;;;;;;;;5039720;28;25055;-71
2023/06/14 10:35:26;;;;;;;2.45;1.58;;;;;;;;;;5056529;28;25049;-72
2023/06/14 10:37:52;;;;;;;1.92;1.30;;;;;;;;;;5065494;28;25064;-71
2023/06/14 10:40:31;;;;;;;1.50;1.40;;;;;;;;;;5068132;28;25132;-71
2023/06/14 10:42:57;;;;;;;2.15;1.55;;;;;;;;;;5062179;28;25156;-70
2023/06/14 10:45:23;;;;;;;2.63;1.40;;;;;;;;;;5059394;28;25179;-72
2023/06/14 10:47:52;;;;;;;1.80;1.60;;;;;;;;;;5062101;28;24981;-73
2023/06/14 10:50:19;;;;;;;1.75;1.30;;;;;;;;;;5055055;28;25073;-70
2023/06/14 10:52:45;;;;;;;1.40;1.30;;;;;;;;;;5061909;28;25069;-75
2023/06/14 10:55:16;;;;;;;5.22;1.33;;;;;;;;;;5055886;28;25080;-73
2023/06/14 10:57:43;;;;;;;1.75;0.98;;;;;;;;;;5065453;28;25111;-71
2023/06/14 11:00:16;;;;;;;1.35;1.20;;;;;;;;;;5068340;28;25073;-72
2023/06/14 11:02:41;;;;;;;3.00;1.27;;;;;;;;;;5058166;28;25074;-71
2023/06/14 11:05:10;;;;;;;1.38;1.25;;;;;;;;;;5046830;28;25104;-71
2023/06/14 11:07:55;;;;;;;1.50;1.38;;;;;;;;;;5058407;28;25079;-71
2023/06/14 11:10:27;;;;;;;1.10;1.00;;;;;;;;;;5060027;28;25085;-74
2023/06/14 11:12:55;;;;;;;3.05;1.17;;;;;;;;;;5064522;28;25108;-71
2023/06/14 11:15:28;;;;;;;9.73;1.65;;;;;;;;;;5065317;28;25058;-73
2023/06/14 11:17:54;;;;;;;1.58;1.40;;;;;;;;;;5091404;28;25062;-75
2023/06/14 11:20:20;;;;;;;4.68;1.45;;;;;;;;;;5087795;28;25054;-71
2023/06/14 11:22:46;;;;;;;3.00;1.30;;;;;;;;;;5068610;28;25063;-72
2023/06/14 11:25:12;;;;;;;3.65;1.50;;;;;;;;;;5076892;28;25052;-72
2023/06/14 11:27:38;;;;;;;3.80;1.17;;;;;;;;;;5083924;28;25080;-74
2023/06/14 11:30:08;;;;;;;1.38;1.13;;;;;;;;;;5084221;28;25073;-70
2023/06/14 11:32:34;;;;;;;2.33;1.10;;;;;;;;;;5060152;28;25040;-73
2023/06/14 11:35:00;;;;;;;2.20;1.30;;;;;;;;;;5070911;28;25121;-70
2023/06/14 11:37:30;;;;;;;3.50;1.58;;;;;;;;;;5043258;28;25058;-71
2023/06/14 11:39:59;;;;;;;1.35;1.20;;;;;;;;;;5068950;28;25062;-72
2023/06/14 11:42:27;;;;;;;4.38;1.60;;;;;;;;;;5070782;28;25056;-71
2023/06/14 11:44:54;;;;;;;8.27;1.30;;;;;;;;;;5072638;28;25095;-71
2023/06/14 11:47:20;;;;;;;3.17;1.52;;;;;;;;;;5079780;28;25068;-72
2023/06/14 11:49:46;;;;;;;6.05;1.40;;;;;;;;;;5065866;28;25076;-71
2023/06/14 11:52:12;;;;;;;2.20;1.20;;;;;;;;;;5072016;28;25050;-71
2023/06/14 11:54:40;;;;;;;4.28;1.42;;;;;;;;;;5073256;28;25066;-72
2023/06/14 11:57:07;;;;;;;2.20;1.38;;;;;;;;;;5049379;28;25048;-73
2023/06/14 11:59:33;;;;;;;1.65;1.15;;;;;;;;;;5070831;28;25054;-71
2023/06/14 12:01:59;;;;;;;2.88;1.40;;;;;;;;;;5060054;28;25049;-70
2023/06/14 12:04:29;;;;;;;2.72;1.23;;;;;;;;;;5068395;28;25064;-73
2023/06/14 12:06:57;;;;;;;2.15;1.40;;;;;;;;;;5071909;28;25074;-72
2023/06/14 12:09:24;;;;;;;3.97;1.50;;;;;;;;;;5064887;28;25168;-72
2023/06/14 12:11:50;;;;;;;1.85;0.95;;;;;;;;;;5072879;28;25149;-74
2023/06/14 12:14:16;;;;;;;1.50;1.40;;;;;;;;;;5043707;28;25056;-72
2023/06/14 12:16:42;;;;;;;1.70;1.23;;;;;;;;;;5058259;28;25088;-72
2023/06/14 12:19:16;;;;;;;1.42;1.33;;;;;;;;;;5056199;28;25081;-70
2023/06/14 12:21:43;;;;;;;1.85;1.33;;;;;;;;;;5054574;28;25060;-72
2023/06/14 12:24:11;;;;;;;5.93;1.52;;;;;;;;;;5047346;28;25077;-73
2023/06/14 12:26:41;;;;;;;5.57;1.40;;;;;;;;;;5062839;28;25142;-71
2023/06/14 12:29:07;;;;;;;3.50;1.30;;;;;;;;;;5037754;28;25058;-71
2023/06/14 12:31:33;;;;;;;2.85;1.60;;;;;;;;;;5063083;28;25095;-72
2023/06/14 12:34:00;;;;;;;2.55;1.20;;;;;;;;;;5058053;28;25142;-73
2023/06/14 12:36:26;;;;;;;3.78;1.67;;;;;;;;;;5060920;28;25151;-71
2023/06/14 12:38:55;;;;;;;2.65;1.38;;;;;;;;;;5052538;28;25096;-72
2023/06/14 12:41:22;;;;;;;1.95;1.35;;;;;;;;;;5063642;28;25060;-72
2023/06/14 12:43:48;;;;;;;2.72;1.55;;;;;;;;;;5037716;28;25106;-71
2023/06/14 12:46:14;;;;;;;5.13;1.40;;;;;;;;;;5072043;28;25076;-72
2023/06/14 12:48:40;;;;;;;3.63;1.48;;;;;;;;;;5037946;28;25208;-72
2023/06/14 12:51:06;;;;;;;7.63;1.27;;;;;;;;;;5042120;28;25099;-73
2023/06/14 12:53:32;;;;;;;2.85;1.30;;;;;;;;;;5073262;28;25059;-73
2023/06/14 12:55:58;;;;;;;1.92;1.30;;;;;;;;;;5074282;28;25163;-73
2023/06/14 12:58:24;;;;;;;1.63;1.30;;;;;;;;;;5072515;28;25063;-73
2023/06/14 13:00:50;;;;;;;2.55;1.20;;;;;;;;;;5066102;28;25122;-73
2023/06/14 13:03:16;;;;;;;1.27;1.20;;;;;;;;;;5061494;28;25064;-71
2023/06/14 13:05:42;;;;;;;3.47;1.90;;;;;;;;;;5048944;28;25169;-71
2023/06/14 13:08:09;;;;;;;4.18;1.35;;;;;;;;;;5050618;28;25091;-73
2023/06/14 13:10:35;;;;;;;5.70;2.15;;;;;;;;;;5062888;28;25063;-72
2023/06/14 13:13:02;;;;;;;1.85;1.27;;;;;;;;;;5028462;28;25144;-73
2023/06/14 13:15:28;;;;;;;1.92;1.30;;;;;;;;;;5068868;28;25120;-73
2023/06/14 13:17:55;;;;;;;4.05;1.58;;;;;;;;;;5057036;28;25063;-74
2023/06/14 13:20:21;;;;;;;2.83;1.30;;;;;;;;;;5055293;28;25170;-70
2023/06/14 13:22:47;;;;;;;1.98;1.60;;;;;;;;;;5063286;28;25100;-72
2023/06/14 13:25:13;;;;;;;6.20;1.63;;;;;;;;;;5045413;28;25084;-74
2023/06/14 13:27:39;;;;;;;2.53;1.58;;;;;;;;;;5069874;28;25113;-74
2023/06/14 13:30:05;;;;;;;2.45;1.25;;;;;;;;;;5060344;28;25067;-72
2023/06/14 13:32:31;;;;;;;4.03;1.48;;;;;;;;;;5060718;28;25175;-72
2023/06/14 13:34:57;;;;;;;3.50;1.15;;;;;;;;;;5055651;28;25111;-72
2023/06/14 13:37:23;;;;;;;4.05;1.67;;;;;;;;;;5059863;28;25054;-74
2023/06/14 13:39:49;;;;;;;1.98;1.48;;;;;;;;;;5044945;28;25149;-72
2023/06/14 13:42:15;;;;;;;4.13;1.67;;;;;;;;;;5030802;28;25074;-72
2023/06/14 13:44:41;;;;;;;4.43;1.38;;;;;;;;;;5066200;28;25073;-73
2023/06/14 13:47:07;;;;;;;5.22;1.45;;;;;;;;;;5060422;28;25053;-76
2023/06/14 13:49:35;;;;;;;4.68;1.95;;;;;;;;;;5070419;28;25071;-74
2023/06/14 13:52:01;;;;;;;2.97;1.55;;;;;;;;;;5051867;28;25068;-75
2023/06/14 13:54:27;;;;;;;4.47;2.25;;;;;;;;;;5073206;28;25175;-72
2023/06/14 13:56:54;;;;;;;3.40;1.55;;;;;;;;;;5074628;28;25067;-70
2023/06/14 13:59:19;;;;;;;2.65;1.70;;;;;;;;;;5069551;28;25148;-72
2023/06/14 14:01:45;;;;;;;5.15;1.70;;;;;;;;;;5071887;28;25072;-72
2023/06/14 14:04:12;;;;;;;5.00;1.85;;;;;;;;;;5063426;28;25063;-74
2023/06/14 14:06:38;;;;;;;2.05;1.67;;;;;;;;;;5064467;28;25140;-70
2023/06/14 14:09:04;;;;;;;2.95;1.85;;;;;;;;;;5063361;28;25127;-72
2023/06/14 14:11:33;;;;;;;5.25;1.70;;;;;;;;;;5059747;28;25062;-74
2023/06/14 14:13:59;;;;;;;3.80;1.58;;;;;;;;;;5044293;28;25073;-73
2023/06/14 14:16:25;;;;;;;3.90;1.40;;;;;;;;;;5058810;28;25064;-71
2023/06/14 14:18:51;;;;;;;3.05;1.20;;;;;;;;;;5064774;28;25057;-72
2023/06/14 14:21:17;;;;;;;4.50;1.70;;;;;;;;;;5062356;28;25085;-72
2023/06/14 14:23:45;;;;;;;4.47;1.35;;;;;;;;;;5067813;28;25115;-72
2023/06/14 14:26:11;;;;;;;4.20;1.70;;;;;;;;;;5057393;28;25076;-71
2023/06/14 14:28:37;;;;;;;2.47;1.52;;;;;;;;;;5044946;28;25076;-72
2023/06/14 14:31:03;;;;;;;3.22;1.40;;;;;;;;;;5065730;28;25061;-74
2023/06/14 14:33:29;;;;;;;3.05;1.30;;;;;;;;;;5055922;28;25078;-72
2023/06/14 14:35:55;;;;;;;1.77;1.25;;;;;;;;;;5066410;28;25077;-72
2023/06/14 14:38:21;;;;;;;5.03;1.38;;;;;;;;;;5056185;28;25068;-71